createdAt,value
2023-03-26T00:04:05.248Z,9.37
2023-03-26T00:09:26.899Z,9.37
2023-03-26T00:14:48.028Z,9.32
2023-03-26T00:20:09.831Z,9.24
2023-03-26T00:25:31.336Z,9.28
2023-03-26T00:31:02.709Z,9.15
2023-03-26T00:36:26.046Z,8.88
2023-03-26T00:41:47.448Z,8.53
2023-03-26T00:47:08.860Z,8.42
2023-03-26T00:52:30.746Z,8.53
2023-03-26T00:57:51.869Z,8.70
2023-03-26T01:03:27.717Z,8.77
2023-03-26T01:08:51.665Z,8.75
2023-03-26T01:14:18.973Z,8.79
2023-03-26T01:20:05.814Z,8.86
2023-03-26T01:25:34.469Z,8.80
2023-03-26T01:31:24.251Z,8.77
2023-03-26T01:37:25.366Z,8.77
2023-03-26T01:43:22.494Z,8.67
2023-03-26T01:48:46.972Z,8.70
2023-03-26T01:54:17.899Z,8.60
2023-03-26T02:00:08.339Z,8.66
2023-03-26T02:05:44.293Z,8.54
2023-03-26T02:11:16.498Z,8.40
2023-03-26T02:16:38.129Z,8.51
2023-03-26T02:21:59.722Z,8.51
2023-03-26T02:27:22.475Z,8.59
2023-03-26T02:32:43.870Z,8.56
2023-03-26T02:38:05.841Z,8.55
2023-03-26T02:43:27.775Z,8.59
2023-03-26T02:48:49.161Z,8.56
2023-03-26T02:54:16.143Z,8.53
2023-03-26T02:59:49.381Z,8.47
2023-03-26T03:05:29.292Z,8.48
2023-03-26T03:11:13.112Z,8.37
2023-03-26T03:16:41.150Z,8.45
2023-03-26T03:22:06.296Z,8.33
2023-03-26T03:27:29.031Z,8.11
2023-03-26T03:33:02.572Z,7.68
2023-03-26T03:38:24.878Z,7.27
2023-03-26T03:43:48.168Z,7.12
2023-03-26T03:49:14.763Z,7.06
2023-03-26T03:54:36.372Z,6.97
2023-03-26T04:00:07.545Z,7.01
2023-03-26T04:05:36.274Z,6.99
2023-03-26T04:10:57.718Z,6.92
2023-03-26T04:16:39.296Z,6.88
2023-03-26T04:22:01.570Z,6.91
2023-03-26T04:27:29.790Z,7.00
2023-03-26T04:33:04.380Z,7.08
2023-03-26T04:38:45.118Z,7.00
2023-03-26T04:44:08.552Z,6.85
2023-03-26T04:49:55.118Z,6.90
2023-03-26T04:55:45.250Z,6.83
2023-03-26T05:01:15.322Z,6.70
2023-03-26T05:06:42.954Z,6.66
2023-03-26T05:12:15.194Z,6.75
2023-03-26T05:17:51.435Z,6.83
2023-03-26T05:23:21.688Z,6.91
2023-03-26T05:28:49.103Z,7.02
2023-03-26T05:34:30.388Z,7.12
2023-03-26T05:39:55.665Z,7.18
2023-03-26T05:45:39.119Z,7.25
2023-03-26T05:51:18.277Z,7.32
2023-03-26T05:56:51.556Z,7.43
2023-03-26T06:02:42.459Z,7.54
2023-03-26T06:08:18.519Z,7.65
2023-03-26T06:13:45.859Z,7.64
2023-03-26T06:19:07.409Z,7.70
2023-03-26T06:24:47.904Z,7.81
2023-03-26T06:30:33.627Z,7.93
2023-03-26T06:36:01.928Z,8.09
2023-03-26T06:41:24.293Z,8.20
2023-03-26T06:47:08.525Z,8.32
2023-03-26T06:52:44.763Z,8.37
2023-03-26T06:58:24.690Z,8.26
2023-03-26T07:04:04.787Z,8.30
2023-03-26T07:09:45.261Z,8.33
2023-03-26T07:15:25.463Z,8.67
2023-03-26T07:21:16.183Z,8.79
2023-03-26T07:27:36.024Z,8.73
2023-03-26T07:33:18.625Z,8.82
2023-03-26T07:38:58.453Z,9.44
2023-03-26T07:44:53.607Z,9.64
2023-03-26T07:50:33.987Z,9.69
2023-03-26T07:56:14.674Z,9.42
2023-03-26T08:02:42.185Z,9.51
2023-03-26T08:09:02.908Z,9.54
2023-03-26T08:15:13.442Z,9.74
2023-03-26T08:20:48.017Z,9.82
2023-03-26T08:26:11.012Z,9.71
2023-03-26T08:31:37.063Z,10.23
2023-03-26T08:36:58.392Z,10.28
2023-03-26T08:42:25.840Z,10.15
2023-03-26T08:48:22.850Z,10.13
2023-03-26T08:53:52.930Z,9.92
2023-03-26T08:59:55.842Z,10.02
2023-03-26T09:06:09.640Z,10.40
2023-03-26T09:12:06.184Z,10.45
2023-03-26T09:18:18.176Z,10.59
2023-03-26T09:24:07.068Z,10.53
2023-03-26T09:29:59.562Z,10.74
2023-03-26T09:35:42.044Z,10.66
2023-03-26T09:41:36.761Z,11.15
2023-03-26T09:47:19.902Z,10.84
2023-03-26T09:53:32.649Z,10.80
2023-03-26T09:59:31.820Z,10.60
2023-03-26T10:05:24.039Z,10.98
2023-03-26T10:11:21.435Z,10.94
2023-03-26T10:17:15.471Z,11.23
2023-03-26T10:23:19.605Z,11.35
2023-03-26T10:28:53.020Z,11.62
2023-03-26T10:34:38.365Z,11.67
2023-03-26T10:40:24.307Z,12.01
2023-03-26T10:45:48.660Z,11.51
2023-03-26T10:51:28.160Z,11.11
2023-03-26T10:56:53.036Z,10.83
2023-03-26T11:02:38.710Z,10.97
2023-03-26T11:08:18.959Z,10.91
2023-03-26T11:14:02.981Z,10.79
2023-03-26T11:19:53.184Z,10.75
2023-03-26T11:26:10.715Z,10.78
2023-03-26T11:32:01.621Z,10.96
2023-03-26T11:37:41.720Z,10.87
2023-03-26T11:43:08.286Z,10.67
2023-03-26T11:48:45.349Z,10.84
2023-03-26T11:54:10.917Z,10.88
2023-03-26T12:00:02.170Z,11.27
2023-03-26T12:05:51.003Z,11.42
2023-03-26T12:11:12.915Z,11.42
2023-03-26T12:16:35.061Z,11.02
2023-03-26T12:21:56.187Z,10.50
2023-03-26T12:27:18.642Z,10.78
2023-03-26T12:32:46.184Z,10.98
2023-03-26T12:38:32.744Z,11.34
2023-03-26T12:44:51.503Z,12.34
2023-03-26T12:49:36.799Z,10.93
2023-03-26T12:55:22.482Z,11.00
2023-03-26T13:01:19.497Z,10.96
2023-03-26T13:07:03.263Z,10.90
2023-03-26T13:12:55.510Z,10.78
2023-03-26T13:18:41.689Z,10.71
2023-03-26T13:24:44.631Z,11.74
2023-03-26T13:30:37.829Z,11.02
2023-03-26T13:36:23.718Z,10.34
2023-03-26T13:42:43.471Z,10.56
2023-03-26T13:48:32.829Z,10.40
2023-03-26T13:54:16.089Z,10.60
2023-03-26T14:00:01.227Z,12.38
2023-03-26T14:05:39.795Z,11.74
2023-03-26T14:11:34.317Z,10.89
2023-03-26T14:17:04.974Z,10.62
2023-03-26T14:22:50.575Z,9.97
2023-03-26T14:29:03.634Z,10.34
2023-03-26T14:35:23.606Z,12.91
2023-03-26T14:41:17.006Z,11.72
2023-03-26T14:47:07.345Z,10.15
2023-03-26T14:53:01.318Z,9.75
2023-03-26T14:58:41.302Z,10.37
2023-03-26T15:04:30.417Z,10.03
2023-03-26T15:10:15.143Z,9.88
2023-03-26T15:16:17.860Z,10.25
2023-03-26T15:22:14.567Z,9.71
2023-03-26T15:27:57.545Z,9.28
2023-03-26T15:33:33.717Z,9.20
2023-03-26T15:39:25.832Z,10.31
2023-03-26T15:45:28.944Z,10.13
2023-03-26T15:51:24.789Z,9.18
2023-03-26T15:57:18.931Z,9.76
2023-03-26T16:02:45.988Z,9.42
2023-03-26T16:08:25.890Z,8.95
2023-03-26T16:14:09.885Z,8.14
2023-03-26T16:19:59.893Z,8.11
2023-03-26T16:25:28.900Z,8.34
2023-03-26T16:31:38.195Z,8.00
2023-03-26T16:37:01.263Z,7.77
2023-03-26T16:42:38.544Z,7.65
2023-03-26T16:48:35.062Z,7.52
2023-03-26T16:54:43.807Z,7.38
2023-03-26T17:00:11.212Z,7.25
2023-03-26T17:06:06.159Z,7.12
2023-03-26T17:12:00.614Z,7.05
2023-03-26T17:17:37.628Z,6.97
2023-03-26T17:23:20.137Z,6.95
2023-03-26T17:29:20.721Z,6.63
2023-03-26T17:34:50.998Z,6.38
2023-03-26T17:40:56.696Z,6.16
2023-03-26T17:46:27.241Z,5.94
2023-03-26T17:52:01.884Z,5.81
2023-03-26T17:57:49.792Z,5.69
2023-03-26T18:03:23.425Z,5.65
2023-03-26T18:08:50.278Z,5.51
2023-03-26T18:14:39.372Z,5.47
2023-03-26T18:20:06.708Z,5.36
2023-03-26T18:25:32.292Z,5.27
2023-03-26T18:30:53.722Z,5.20
2023-03-26T18:36:17.026Z,5.13
2023-03-26T18:41:40.514Z,5.11
2023-03-26T18:47:06.598Z,5.01
2023-03-26T18:52:29.655Z,4.91
2023-03-26T18:57:51.216Z,4.96
2023-03-26T19:03:15.034Z,4.82
2023-03-26T19:08:39.531Z,4.61
2023-03-26T19:14:08.264Z,4.71
2023-03-26T19:19:36.827Z,4.73
2023-03-26T19:25:04.055Z,4.69
2023-03-26T19:30:35.201Z,4.57
2023-03-26T19:36:26.478Z,4.51
2023-03-26T19:41:52.249Z,4.48
2023-03-26T19:47:17.739Z,4.31
2023-03-26T19:52:39.012Z,4.18
2023-03-26T19:58:00.418Z,4.16
2023-03-26T20:03:30.101Z,4.11
2023-03-26T20:08:52.141Z,4.13
2023-03-26T20:14:18.984Z,4.23
2023-03-26T20:19:41.061Z,4.64
2023-03-26T20:25:02.270Z,4.76
2023-03-26T20:30:37.004Z,4.66
2023-03-26T20:35:59.813Z,4.51
2023-03-26T20:41:24.265Z,4.40
2023-03-26T20:46:47.813Z,4.31
2023-03-26T20:52:11.531Z,4.50
2023-03-26T20:57:32.812Z,4.62
2023-03-26T21:02:57.840Z,4.68
2023-03-26T21:08:20.718Z,4.58
2023-03-26T21:13:56.017Z,4.52
2023-03-26T21:19:18.147Z,4.42
2023-03-26T21:24:58.293Z,4.42
2023-03-26T21:30:20.308Z,4.48
2023-03-26T21:35:42.192Z,4.21
2023-03-26T21:41:04.619Z,3.95
2023-03-26T21:46:26.799Z,3.62
2023-03-26T21:51:48.243Z,3.58
2023-03-26T21:57:33.693Z,3.44
2023-03-26T22:03:32.851Z,3.31
2023-03-26T22:08:54.606Z,3.07
2023-03-26T22:14:16.170Z,2.93
2023-03-26T22:19:37.709Z,2.89
2023-03-26T22:24:59.086Z,2.77
2023-03-26T22:30:23.204Z,2.75
2023-03-26T22:35:44.891Z,2.63
2023-03-26T22:41:06.604Z,2.70
2023-03-26T22:46:28.166Z,2.75
2023-03-26T22:51:49.559Z,3.01
2023-03-26T22:57:10.979Z,3.36
2023-03-26T23:02:32.593Z,3.29
2023-03-26T23:07:54.154Z,3.30
2023-03-26T23:13:15.490Z,3.49
2023-03-26T23:18:37.093Z,3.57
2023-03-26T23:23:58.771Z,3.60
2023-03-26T23:29:20.214Z,3.49
2023-03-26T23:34:41.507Z,3.18
2023-03-26T23:40:16.824Z,2.76
2023-03-26T23:45:38.788Z,2.40
2023-03-26T23:51:03.445Z,2.09
2023-03-26T23:56:26.105Z,1.80
